createdAt,value
2018-03-03T00:02:15.647Z,68.31
2018-03-03T00:04:46.781Z,67.42
2018-03-03T00:07:17.865Z,68.28
2018-03-03T00:09:49.946Z,68.71
2018-03-03T00:12:21.020Z,66.97
2018-03-03T00:14:52.128Z,67.96
2018-03-03T00:17:24.018Z,67.06
2018-03-03T00:19:55.825Z,66.67
2018-03-03T00:22:34.533Z,66.58
2018-03-03T00:25:06.242Z,66.56
2018-03-03T00:27:38.725Z,65.42
2018-03-03T00:30:09.936Z,66.78
2018-03-03T00:32:42.124Z,66.59
2018-03-03T00:35:14.072Z,66.68
2018-03-03T00:37:45.631Z,65.03
2018-03-03T00:40:17.503Z,64.76
2018-03-03T00:42:49.634Z,64.21
2018-03-03T00:45:20.772Z,63.35
2018-03-03T00:47:52.989Z,62.64
2018-03-03T00:50:24.593Z,63.11
2018-03-03T00:52:56.214Z,62.50
2018-03-03T00:55:27.596Z,63.42
2018-03-03T00:58:02.636Z,62.20
2018-03-03T01:00:37.310Z,62.66
2018-03-03T01:03:08.941Z,61.75
2018-03-03T01:05:40.933Z,62.17
2018-03-03T01:08:12.496Z,62.13
2018-03-03T01:10:43.596Z,61.92
2018-03-03T01:13:15.039Z,61.83
2018-03-03T01:15:46.197Z,61.76
2018-03-03T01:18:18.397Z,61.72
2018-03-03T01:20:50.204Z,62.13
2018-03-03T01:23:22.078Z,61.38
2018-03-03T01:25:54.395Z,61.94
2018-03-03T01:28:25.892Z,61.80
2018-03-03T01:30:57.061Z,62.38
2018-03-03T01:33:29.008Z,62.30
2018-03-03T01:36:01.241Z,63.35
2018-03-03T01:38:32.596Z,63.06
2018-03-03T01:41:04.500Z,63.75
2018-03-03T01:43:50.892Z,64.52
2018-03-03T01:46:22.892Z,65.37
2018-03-03T01:48:54.409Z,63.15
2018-03-03T01:51:34.258Z,64.76
2018-03-03T01:54:05.888Z,66.18
2018-03-03T01:56:38.010Z,65.48
2018-03-03T01:59:10.136Z,65.24
2018-03-03T02:01:41.301Z,64.77
2018-03-03T02:04:13.879Z,64.06
2018-03-03T02:06:45.636Z,63.68
2018-03-03T02:09:17.362Z,62.78
2018-03-03T02:11:49.294Z,63.00
2018-03-03T02:14:20.889Z,63.81
2018-03-03T02:16:52.873Z,65.53
2018-03-03T02:19:24.409Z,66.61
2018-03-03T02:21:56.031Z,65.38
2018-03-03T02:24:28.066Z,63.61
2018-03-03T02:27:01.049Z,65.10
2018-03-03T02:29:32.245Z,67.13
2018-03-03T02:32:04.010Z,65.39
2018-03-03T02:34:36.424Z,64.63
2018-03-03T02:37:07.652Z,63.63
2018-03-03T02:39:39.807Z,63.69
2018-03-03T02:42:12.106Z,63.45
2018-03-03T02:44:43.671Z,65.61
2018-03-03T02:47:15.513Z,66.23
2018-03-03T02:49:46.950Z,66.77
2018-03-03T02:52:19.011Z,65.53
2018-03-03T02:54:50.893Z,65.61
2018-03-03T02:57:22.651Z,65.36
2018-03-03T02:59:54.384Z,65.99
2018-03-03T03:02:25.858Z,66.17
2018-03-03T03:04:57.431Z,64.29
2018-03-03T03:07:29.117Z,63.91
2018-03-03T03:10:00.647Z,63.83
2018-03-03T03:12:32.501Z,64.08
2018-03-03T03:15:05.185Z,64.75
2018-03-03T03:17:37.057Z,63.46
2018-03-03T03:20:09.096Z,64.29
2018-03-03T03:22:40.936Z,63.93
2018-03-03T03:25:12.789Z,65.48
2018-03-03T03:27:44.760Z,64.25
2018-03-03T03:30:15.926Z,63.69
2018-03-03T03:32:47.516Z,64.50
2018-03-03T03:35:19.521Z,63.86
2018-03-03T03:37:51.280Z,63.06
2018-03-03T03:40:23.122Z,63.98
2018-03-03T03:42:54.728Z,64.20
2018-03-03T03:45:26.488Z,64.38
2018-03-03T03:47:59.678Z,65.47
2018-03-03T03:50:31.640Z,64.03
2018-03-03T03:53:05.329Z,63.62
2018-03-03T03:55:37.396Z,64.43
2018-03-03T03:58:09.386Z,64.24
2018-03-03T04:00:41.152Z,63.47
2018-03-03T04:03:13.085Z,63.50
2018-03-03T04:05:44.869Z,64.18
2018-03-03T04:08:16.066Z,64.94
2018-03-03T04:10:47.210Z,64.57
2018-03-03T04:13:18.710Z,65.44
2018-03-03T04:15:49.876Z,64.33
2018-03-03T04:18:21.509Z,62.64
2018-03-03T04:20:53.190Z,63.15
2018-03-03T04:23:24.606Z,62.99
2018-03-03T04:26:10.885Z,63.93
2018-03-03T04:28:42.681Z,63.09
2018-03-03T04:31:14.821Z,62.52
2018-03-03T04:33:46.042Z,63.49
2018-03-03T04:36:17.737Z,62.25
2018-03-03T04:38:49.837Z,63.69
2018-03-03T04:41:26.356Z,63.70
2018-03-03T04:44:03.391Z,62.11
2018-03-03T04:46:42.296Z,62.67
2018-03-03T04:49:13.594Z,62.48
2018-03-03T04:51:45.668Z,63.90
2018-03-03T04:54:17.209Z,64.05
2018-03-03T04:57:02.213Z,63.97
2018-03-03T04:59:33.545Z,63.95
2018-03-03T05:02:13.489Z,64.11
2018-03-03T05:04:44.891Z,65.03
2018-03-03T05:07:17.034Z,63.10
2018-03-03T05:09:49.196Z,63.77
2018-03-03T05:12:21.504Z,62.13
2018-03-03T05:14:53.253Z,62.88
2018-03-03T05:17:25.537Z,63.77
2018-03-03T05:19:58.037Z,63.70
2018-03-03T05:22:29.439Z,63.29
2018-03-03T05:25:03.361Z,63.62
2018-03-03T05:27:35.203Z,63.34
2018-03-03T05:30:08.007Z,62.18
2018-03-03T05:32:40.797Z,62.94
2018-03-03T05:35:12.758Z,62.66
2018-03-03T05:37:51.674Z,62.41
2018-03-03T05:40:23.300Z,63.05
2018-03-03T05:42:55.132Z,63.70
2018-03-03T05:45:28.684Z,63.29
2018-03-03T05:48:02.752Z,62.42
2018-03-03T05:50:34.437Z,62.30
2018-03-03T05:53:07.497Z,63.08
2018-03-03T05:55:39.833Z,62.62
2018-03-03T05:58:14.044Z,63.21
2018-03-03T06:00:47.558Z,64.36
2018-03-03T06:03:19.895Z,63.30
2018-03-03T06:05:51.379Z,63.97
2018-03-03T06:08:23.512Z,63.64
2018-03-03T06:10:55.416Z,64.85
2018-03-03T06:13:26.620Z,66.09
2018-03-03T06:15:57.818Z,63.88
2018-03-03T06:18:30.205Z,65.22
2018-03-03T06:21:08.872Z,63.98
2018-03-03T06:23:40.429Z,64.67
2018-03-03T06:26:11.909Z,65.57
2018-03-03T06:28:43.478Z,65.60
2018-03-03T06:31:15.144Z,65.25
2018-03-03T06:33:46.888Z,64.52
2018-03-03T06:36:18.557Z,64.14
2018-03-03T06:38:50.321Z,65.23
2018-03-03T06:41:21.871Z,63.24
2018-03-03T06:43:53.142Z,64.58
2018-03-03T06:46:24.463Z,64.16
2018-03-03T06:48:56.094Z,65.51
2018-03-03T06:51:27.533Z,65.52
2018-03-03T06:53:58.745Z,64.58
2018-03-03T06:56:29.993Z,63.58
2018-03-03T06:59:02.774Z,65.78
2018-03-03T07:01:33.961Z,63.89
2018-03-03T07:04:07.069Z,64.75
2018-03-03T07:06:38.825Z,63.58
2018-03-03T07:09:11.062Z,64.49
2018-03-03T07:11:43.319Z,64.57
2018-03-03T07:14:14.937Z,64.31
2018-03-03T07:16:46.713Z,63.86
2018-03-03T07:19:18.087Z,63.49
2018-03-03T07:21:49.462Z,62.93
2018-03-03T07:24:21.076Z,63.46
2018-03-03T07:26:52.309Z,63.23
2018-03-03T07:29:23.502Z,62.98
2018-03-03T07:31:55.632Z,63.60
2018-03-03T07:34:26.798Z,63.21
2018-03-03T07:37:00.767Z,62.80
2018-03-03T07:39:32.082Z,64.30
2018-03-03T07:42:04.866Z,64.02
2018-03-03T07:44:36.168Z,64.90
2018-03-03T07:47:07.376Z,64.73
2018-03-03T07:49:39.495Z,65.49
2018-03-03T07:52:10.671Z,64.86
2018-03-03T07:54:41.982Z,64.79
2018-03-03T07:57:22.811Z,66.18
2018-03-03T07:59:54.713Z,64.88
2018-03-03T08:02:26.340Z,66.07
2018-03-03T08:04:57.610Z,64.33
2018-03-03T08:07:29.184Z,64.59
2018-03-03T08:10:01.835Z,64.87
2018-03-03T08:12:33.078Z,64.00
2018-03-03T08:15:05.220Z,64.68
2018-03-03T08:17:36.555Z,65.19
2018-03-03T08:20:08.563Z,66.38
2018-03-03T08:22:39.675Z,68.24
2018-03-03T08:25:11.924Z,68.59
2018-03-03T08:27:43.134Z,67.46
2018-03-03T08:30:14.743Z,69.18
2018-03-03T08:32:45.897Z,71.11
2018-03-03T08:35:17.023Z,73.03
2018-03-03T08:37:48.671Z,70.62
2018-03-03T08:40:19.806Z,71.30
2018-03-03T08:42:51.743Z,70.17
2018-03-03T08:45:23.266Z,71.14
2018-03-03T08:47:55.334Z,71.62
2018-03-03T08:50:26.790Z,73.26
2018-03-03T08:52:58.622Z,72.47
2018-03-03T08:55:31.892Z,73.66
2018-03-03T08:58:05.785Z,73.75
2018-03-03T09:00:37.008Z,73.64
2018-03-03T09:03:09.612Z,73.13
2018-03-03T09:05:40.774Z,73.56
2018-03-03T09:08:12.217Z,73.52
2018-03-03T09:10:43.626Z,73.31
2018-03-03T09:13:15.007Z,72.95
2018-03-03T09:15:47.545Z,72.95
2018-03-03T09:18:20.037Z,73.01
2018-03-03T09:20:51.200Z,72.92
2018-03-03T09:23:22.892Z,71.68
2018-03-03T09:25:54.090Z,72.22
2018-03-03T09:28:25.277Z,71.58
2018-03-03T09:30:56.740Z,71.19
2018-03-03T09:33:27.941Z,70.32
2018-03-03T09:36:00.125Z,70.19
2018-03-03T09:38:32.259Z,70.35
2018-03-03T09:41:03.439Z,70.78
2018-03-03T09:43:34.629Z,70.52
2018-03-03T09:46:05.905Z,70.22
2018-03-03T09:48:37.119Z,69.98
2018-03-03T09:51:08.337Z,70.04
2018-03-03T09:53:39.749Z,69.28
2018-03-03T09:56:11.352Z,69.39
2018-03-03T09:58:42.539Z,69.56
2018-03-03T10:01:14.114Z,69.90
2018-03-03T10:03:45.696Z,71.08
2018-03-03T10:06:16.849Z,70.58
2018-03-03T10:08:48.065Z,70.00
2018-03-03T10:11:19.436Z,70.32
2018-03-03T10:13:50.605Z,70.51
2018-03-03T10:16:22.229Z,69.94
2018-03-03T10:18:53.493Z,71.60
2018-03-03T10:21:24.925Z,74.15
2018-03-03T10:23:56.651Z,73.62
2018-03-03T10:26:27.830Z,73.35
2018-03-03T10:28:59.336Z,75.02
2018-03-03T10:31:30.529Z,76.51
2018-03-03T10:34:01.720Z,74.74
2018-03-03T10:36:33.422Z,75.14
2018-03-03T10:39:04.816Z,73.93
2018-03-03T10:41:36.269Z,73.87
2018-03-03T10:44:07.509Z,76.27
2018-03-03T10:46:38.539Z,74.73
2018-03-03T10:49:12.720Z,73.12
2018-03-03T10:51:43.866Z,72.60
2018-03-03T10:54:15.104Z,73.20
2018-03-03T10:56:46.607Z,72.79
2018-03-03T10:59:17.800Z,71.45
2018-03-03T11:01:48.941Z,70.56
2018-03-03T11:04:20.478Z,70.30
2018-03-03T11:06:51.778Z,70.42
2018-03-03T11:09:22.984Z,71.46
2018-03-03T11:11:54.546Z,70.51
2018-03-03T11:14:25.712Z,69.11
2018-03-03T11:16:56.850Z,69.56
2018-03-03T11:19:28.282Z,68.69
2018-03-03T11:21:59.403Z,68.98
2018-03-03T11:24:30.810Z,68.90
2018-03-03T11:27:02.326Z,68.82
2018-03-03T11:29:33.458Z,67.79
2018-03-03T11:32:04.827Z,68.57
2018-03-03T11:34:35.950Z,67.95
2018-03-03T11:37:07.129Z,68.06
2018-03-03T11:39:38.257Z,67.89
2018-03-03T11:42:09.574Z,68.28
2018-03-03T11:44:40.845Z,69.11
2018-03-03T11:47:12.241Z,69.27
2018-03-03T11:49:43.516Z,69.67
2018-03-03T11:52:19.362Z,69.36
2018-03-03T11:54:50.125Z,69.54
2018-03-03T11:57:21.316Z,68.78
2018-03-03T11:59:52.337Z,68.67
2018-03-03T12:02:24.177Z,68.69
2018-03-03T12:04:55.421Z,69.64
2018-03-03T12:07:26.617Z,70.46
2018-03-03T12:09:58.386Z,70.50
2018-03-03T12:12:29.605Z,69.83
2018-03-03T12:15:00.921Z,68.91
2018-03-03T12:17:33.014Z,68.84
2018-03-03T12:20:07.259Z,68.72
2018-03-03T12:22:38.705Z,68.80
2018-03-03T12:25:11.374Z,67.01
2018-03-03T12:27:42.244Z,68.89
2018-03-03T12:30:13.889Z,66.75
2018-03-03T12:32:44.640Z,65.40
2018-03-03T12:35:15.701Z,65.42
2018-03-03T12:37:46.539Z,65.21
2018-03-03T12:40:17.785Z,64.45
2018-03-03T12:42:49.024Z,64.62
2018-03-03T12:45:20.855Z,62.88
2018-03-03T12:47:51.766Z,62.54
2018-03-03T12:50:23.664Z,61.87
2018-03-03T12:52:54.469Z,61.85
2018-03-03T12:55:25.346Z,62.04
2018-03-03T12:57:57.054Z,60.56
2018-03-03T13:00:27.835Z,61.46
2018-03-03T13:02:59.305Z,60.99
2018-03-03T13:05:30.786Z,61.92
2018-03-03T13:08:02.513Z,59.72
2018-03-03T13:10:33.687Z,60.05
2018-03-03T13:13:05.417Z,59.48
2018-03-03T13:15:36.726Z,59.52
2018-03-03T13:18:07.868Z,59.49
2018-03-03T13:20:38.703Z,59.69
2018-03-03T13:23:09.963Z,59.22
2018-03-03T13:25:40.818Z,59.10
2018-03-03T13:28:12.565Z,58.03
2018-03-03T13:30:43.360Z,58.46
2018-03-03T13:33:14.162Z,59.01
2018-03-03T13:35:45.431Z,58.58
2018-03-03T13:38:16.842Z,59.00
2018-03-03T13:40:47.631Z,58.89
2018-03-03T13:43:20.049Z,59.31
2018-03-03T13:45:50.777Z,59.80
2018-03-03T13:48:21.697Z,60.06
2018-03-03T13:50:52.861Z,60.84
2018-03-03T13:53:23.763Z,61.72
2018-03-03T13:55:55.601Z,62.04
2018-03-03T13:58:28.585Z,62.07
2018-03-03T14:01:00.051Z,62.32
2018-03-03T14:03:31.212Z,61.20
2018-03-03T14:06:05.237Z,62.32
2018-03-03T14:08:36.314Z,61.95
2018-03-03T14:11:07.089Z,62.08
2018-03-03T14:13:38.119Z,61.71
2018-03-03T14:16:09.354Z,61.96
2018-03-03T14:18:40.604Z,62.04
2018-03-03T14:21:11.946Z,61.93
2018-03-03T14:23:43.020Z,61.18
2018-03-03T14:26:13.915Z,60.77
2018-03-03T14:28:44.749Z,59.53
2018-03-03T14:31:15.874Z,57.74
2018-03-03T14:33:47.281Z,57.69
2018-03-03T14:36:19.313Z,57.78
2018-03-03T14:38:50.113Z,57.21
2018-03-03T14:41:20.959Z,56.65
2018-03-03T14:43:52.230Z,55.70
2018-03-03T14:46:23.093Z,57.28
2018-03-03T14:48:53.860Z,55.62
2018-03-03T14:51:25.141Z,56.44
2018-03-03T14:53:56.029Z,55.12
2018-03-03T14:56:27.337Z,56.44
2018-03-03T14:58:58.427Z,55.44
2018-03-03T15:01:29.350Z,55.75
2018-03-03T15:04:02.141Z,55.71
2018-03-03T15:06:32.909Z,57.04
2018-03-03T15:09:06.317Z,55.69
2018-03-03T15:11:37.469Z,55.84
2018-03-03T15:14:08.345Z,55.70
2018-03-03T15:16:39.968Z,56.14
2018-03-03T15:19:11.099Z,56.53
2018-03-03T15:21:42.018Z,55.76
2018-03-03T15:24:13.097Z,55.64
2018-03-03T15:26:43.844Z,55.33
2018-03-03T15:29:14.675Z,55.90
2018-03-03T15:31:50.713Z,55.40
2018-03-03T15:34:26.977Z,55.26
2018-03-03T15:36:58.231Z,54.89
2018-03-03T15:42:05.666Z,55.85
2018-03-03T15:44:36.482Z,55.50
2018-03-03T15:47:14.082Z,55.11
2018-03-03T15:49:48.049Z,56.46
2018-03-03T15:52:20.638Z,55.94
2018-03-03T15:54:51.509Z,55.90
2018-03-03T15:57:26.580Z,56.84
2018-03-03T15:59:57.476Z,57.24
2018-03-03T16:02:28.613Z,57.18
2018-03-03T16:04:59.787Z,57.79
2018-03-03T16:07:31.247Z,57.71
2018-03-03T16:10:02.426Z,57.95
2018-03-03T16:12:33.277Z,57.53
2018-03-03T16:15:05.195Z,57.21
2018-03-03T16:17:36.411Z,57.15
2018-03-03T16:20:07.493Z,56.78
2018-03-03T16:22:38.646Z,56.77
2018-03-03T16:25:09.969Z,56.23
2018-03-03T16:27:40.799Z,56.51
2018-03-03T16:30:11.958Z,57.29
2018-03-03T16:32:42.968Z,56.52
2018-03-03T16:35:14.265Z,56.25
2018-03-03T16:37:45.417Z,55.99
2018-03-03T16:40:16.812Z,55.21
2018-03-03T16:42:47.649Z,55.68
2018-03-03T16:45:19.250Z,55.82
2018-03-03T16:47:50.434Z,55.59
2018-03-03T16:50:21.557Z,55.73
2018-03-03T16:52:53.208Z,55.39
2018-03-03T16:55:24.106Z,55.51
2018-03-03T16:57:55.440Z,55.48
2018-03-03T17:00:26.254Z,55.15
2018-03-03T17:02:57.098Z,56.10
2018-03-03T17:05:28.629Z,55.74
2018-03-03T17:07:59.441Z,55.70
2018-03-03T17:10:30.269Z,56.29
2018-03-03T17:13:01.401Z,55.65
2018-03-03T17:15:32.314Z,55.72
2018-03-03T17:18:04.150Z,55.40
2018-03-03T17:20:35.066Z,55.37
2018-03-03T17:23:06.446Z,55.02
2018-03-03T17:26:07.621Z,55.14
2018-03-03T17:28:39.127Z,54.94
2018-03-03T17:31:10.193Z,54.96
2018-03-03T17:33:41.116Z,55.09
2018-03-03T17:36:12.050Z,54.69
2018-03-03T17:38:43.233Z,55.28
2018-03-03T17:41:14.169Z,55.01
2018-03-03T17:43:45.462Z,54.53
2018-03-03T17:46:17.063Z,54.98
2018-03-03T17:48:48.213Z,54.67
2018-03-03T17:51:19.117Z,55.11
2018-03-03T17:53:50.057Z,55.10
2018-03-03T17:56:21.370Z,54.35
2018-03-03T17:58:52.247Z,54.91
2018-03-03T18:01:23.086Z,54.47
2018-03-03T18:03:54.350Z,54.93
2018-03-03T18:06:25.542Z,54.58
2018-03-03T18:08:56.373Z,54.61
2018-03-03T18:11:27.497Z,55.07
2018-03-03T18:13:58.373Z,54.66
2018-03-03T18:16:29.801Z,54.33
2018-03-03T18:19:02.133Z,55.09
2018-03-03T18:21:35.722Z,54.44
2018-03-03T18:24:11.444Z,54.24
2018-03-03T18:26:43.204Z,53.69
2018-03-03T18:29:14.750Z,54.52
2018-03-03T18:31:46.010Z,54.46
2018-03-03T18:34:16.830Z,54.11
2018-03-03T18:36:47.932Z,54.10
2018-03-03T18:39:19.774Z,53.67
2018-03-03T18:41:50.881Z,53.95
2018-03-03T18:44:21.713Z,53.34
2018-03-03T18:46:52.498Z,54.19
2018-03-03T18:49:23.588Z,53.96
2018-03-03T18:51:55.067Z,53.41
2018-03-03T18:54:25.849Z,53.68
2018-03-03T18:56:56.948Z,53.40
2018-03-03T18:59:27.757Z,53.42
2018-03-03T19:01:58.629Z,53.24
2018-03-03T19:04:29.818Z,52.94
2018-03-03T19:07:02.255Z,53.39
2018-03-03T19:09:33.081Z,53.70
2018-03-03T19:12:03.924Z,53.02
2018-03-03T19:14:35.064Z,53.01
2018-03-03T19:17:05.975Z,52.62
2018-03-03T19:19:36.818Z,52.99
2018-03-03T19:22:07.878Z,53.85
2018-03-03T19:24:38.732Z,52.98
2018-03-03T19:27:10.389Z,54.17
2018-03-03T19:29:41.311Z,54.19
2018-03-03T19:32:12.067Z,53.96
2018-03-03T19:34:43.357Z,54.27
2018-03-03T19:37:14.509Z,55.01
2018-03-03T19:39:45.343Z,55.10
2018-03-03T19:42:16.190Z,55.01
2018-03-03T19:44:47.034Z,54.53
2018-03-03T19:47:18.042Z,54.36
2018-03-03T19:49:48.889Z,54.83
2018-03-03T19:52:19.721Z,54.21
2018-03-03T19:54:50.961Z,53.11
2018-03-03T19:57:21.864Z,53.79
2018-03-03T19:59:52.628Z,53.62
2018-03-03T20:02:23.513Z,53.49
2018-03-03T20:04:54.444Z,52.95
2018-03-03T20:07:25.359Z,53.46
2018-03-03T20:09:56.540Z,55.32
2018-03-03T20:12:27.369Z,55.11
2018-03-03T20:14:58.296Z,54.56
2018-03-03T20:17:29.431Z,56.21
2018-03-03T20:20:00.381Z,60.24
2018-03-03T20:22:31.403Z,58.27
2018-03-03T20:25:02.245Z,59.22
2018-03-03T20:27:33.068Z,59.58
2018-03-03T20:30:08.309Z,59.61
2018-03-03T20:32:39.078Z,60.07
2018-03-03T20:35:09.979Z,63.26
2018-03-03T20:37:41.077Z,62.16
2018-03-03T20:40:11.900Z,64.42
2018-03-03T20:42:43.393Z,62.76
2018-03-03T20:45:15.105Z,65.64
2018-03-03T20:47:45.865Z,67.39
2018-03-03T20:50:17.212Z,66.43
2018-03-03T20:52:48.000Z,68.46
2018-03-03T20:55:20.296Z,72.19
2018-03-03T20:57:51.633Z,70.12
2018-03-03T21:00:22.484Z,71.51
2018-03-03T21:02:53.398Z,69.54
2018-03-03T21:05:24.728Z,69.30
2018-03-03T21:07:55.581Z,68.58
2018-03-03T21:10:27.035Z,69.99
2018-03-03T21:12:58.249Z,68.43
2018-03-03T21:15:29.054Z,67.81
2018-03-03T21:18:02.776Z,68.00
2018-03-03T21:20:33.645Z,68.26
2018-03-03T21:23:06.852Z,67.46
2018-03-03T21:25:37.723Z,71.58
2018-03-03T21:28:09.401Z,68.35
2018-03-03T21:30:40.712Z,73.07
2018-03-03T21:33:15.421Z,72.65
2018-03-03T21:35:46.467Z,75.79
2018-03-03T21:38:17.529Z,73.66
2018-03-03T21:40:48.433Z,73.71
2018-03-03T21:43:19.716Z,73.10
2018-03-03T21:45:50.549Z,73.31
2018-03-03T21:48:21.650Z,75.47
2018-03-03T21:50:53.029Z,75.32
2018-03-03T21:53:23.929Z,76.08
2018-03-03T21:55:55.073Z,79.35
2018-03-03T21:58:26.449Z,74.16
2018-03-03T22:00:57.536Z,79.55
2018-03-03T22:03:28.380Z,82.04
2018-03-03T22:06:00.869Z,81.39
2018-03-03T22:08:33.901Z,82.47
2018-03-03T22:11:06.348Z,83.60
2018-03-03T22:13:39.461Z,79.85
2018-03-03T22:16:11.199Z,83.52
2018-03-03T22:18:42.392Z,81.15
2018-03-03T22:21:19.864Z,83.00
2018-03-03T22:23:51.450Z,83.90
2018-03-03T22:26:22.637Z,80.35
2018-03-03T22:28:54.055Z,82.97
2018-03-03T22:31:25.345Z,82.05
2018-03-03T22:33:56.497Z,78.04
2018-03-03T22:36:28.214Z,84.95
2018-03-03T22:39:00.705Z,79.58
2018-03-03T22:41:31.541Z,83.97
2018-03-03T22:44:03.980Z,83.32
2018-03-03T22:46:35.906Z,79.12
2018-03-03T22:49:07.117Z,81.44
2018-03-03T22:51:38.249Z,79.93
2018-03-03T22:54:09.639Z,82.93
2018-03-03T22:56:40.921Z,79.54
2018-03-03T22:59:11.971Z,80.33
2018-03-03T23:01:43.222Z,82.48
2018-03-03T23:04:14.364Z,83.31
2018-03-03T23:06:45.439Z,84.02
2018-03-03T23:09:16.987Z,85.07
2018-03-03T23:11:48.097Z,85.64
2018-03-03T23:14:19.248Z,86.88
2018-03-03T23:16:50.448Z,87.79
2018-03-03T23:19:21.500Z,88.15
2018-03-03T23:21:53.468Z,85.80
2018-03-03T23:24:25.314Z,86.68
2018-03-03T23:26:56.396Z,85.51
2018-03-03T23:29:28.157Z,87.11
2018-03-03T23:32:00.117Z,84.04
2018-03-03T23:34:31.240Z,83.90
2018-03-03T23:37:02.304Z,84.52
2018-03-03T23:39:33.821Z,80.14
2018-03-03T23:42:05.438Z,78.53
2018-03-03T23:44:37.481Z,80.33
2018-03-03T23:47:09.637Z,80.04
2018-03-03T23:49:40.724Z,77.88
2018-03-03T23:52:12.949Z,76.86
2018-03-03T23:54:44.762Z,77.98
2018-03-03T23:57:15.917Z,77.71
2018-03-03T23:59:47.804Z,77.45
